Time;durP1;ratioP1;P1;durP2;ratioP2;P2;SDS_P1;SDS_P2;PMS_P1;PMS_P2;Temp;Humidity;BMP_temperature;BMP_pressure;BME280_temperature;BME280_humidity;BME280_pressure;Samples;Min_cycle;Max_cycle;Signal;HPM_P1;HPM_P2
2022/07/19 00:02:05;;;;;;;0.93;0.90;;;18.00;64.20;18.00;101121.00;;;;4954441;28;93057;-63
2022/07/19 00:04:32;;;;;;;0.77;0.77;;;18.10;64.40;18.00;101117.00;;;;4937020;28;89858;-62
2022/07/19 00:06:57;;;;;;;0.88;0.88;;;17.90;64.80;18.00;101125.00;;;;4955815;28;88300;-63
2022/07/19 00:09:25;;;;;;;1.13;0.80;;;17.90;65.10;17.90;101131.00;;;;4954939;28;93735;-63
2022/07/19 00:11:51;;;;;;;3.50;0.70;;;17.80;65.50;17.90;101120.00;;;;4955749;28;87553;-63
2022/07/19 00:14:17;;;;;;;2.75;1.05;;;17.80;65.70;17.80;101128.00;;;;4954553;28;98012;-63
2022/07/19 00:16:43;;;;;;;0.65;0.65;;;17.70;66.00;17.70;101121.00;;;;4936232;28;116967;-63
2022/07/19 00:19:08;;;;;;;1.48;0.88;;;17.70;66.40;17.70;101119.00;;;;4954373;28;109827;-63
2022/07/19 00:21:34;;;;;;;1.08;0.98;;;17.60;66.70;17.60;101121.00;;;;4954311;28;108085;-63
2022/07/19 00:24:00;;;;;;;0.70;0.70;;;17.50;67.00;17.60;101118.00;;;;4954624;28;96373;-63
2022/07/19 00:26:27;;;;;;;0.90;0.85;;;17.50;67.30;17.50;101131.00;;;;4936011;28;107070;-63
2022/07/19 00:28:54;;;;;;;1.85;0.73;;;17.40;67.70;17.50;101114.00;;;;4954417;28;88259;-63
2022/07/19 00:31:24;;;;;;;1.55;0.90;;;17.40;68.20;17.50;101115.00;;;;4954537;28;86850;-63
2022/07/19 00:33:50;;;;;;;0.80;0.77;;;17.40;68.60;17.40;101114.00;;;;4954009;28;100075;-63
2022/07/19 00:36:16;;;;;;;0.80;0.75;;;17.40;68.90;17.40;101113.00;;;;4955023;28;104492;-63
2022/07/19 00:38:42;;;;;;;1.20;0.80;;;17.30;69.30;17.40;101108.00;;;;4954414;28;88701;-63
2022/07/19 00:41:07;;;;;;;2.42;1.27;;;17.30;69.90;17.30;101108.00;;;;4936408;28;109137;-63
2022/07/19 00:43:33;;;;;;;1.40;1.30;;;17.20;70.00;17.20;101113.00;;;;4954540;28;117708;-63
2022/07/19 00:45:59;;;;;;;0.70;0.63;;;17.20;70.40;17.20;101108.00;;;;4954951;28;104903;-63
2022/07/19 00:48:25;;;;;;;1.23;0.75;;;17.10;70.80;17.10;101105.00;;;;4955546;28;87732;-63
2022/07/19 00:50:51;;;;;;;2.08;1.13;;;17.00;71.00;17.10;101104.00;;;;4952667;28;109938;-63
2022/07/19 00:53:18;;;;;;;1.88;1.17;;;17.00;71.10;17.10;101108.00;;;;4953615;28;117576;-63
2022/07/19 00:55:45;;;;;;;2.47;1.00;;;17.00;71.40;17.10;101113.00;;;;4954693;28;88060;-63
2022/07/19 00:58:15;;;;;;;1.67;1.23;;;16.90;71.50;17.00;101096.00;;;;4954209;28;87773;-63
2022/07/19 01:00:42;;;;;;;2.60;1.05;;;16.90;71.80;17.00;101099.00;;;;4955272;28;87816;-63
2022/07/19 01:03:08;;;;;;;1.65;0.80;;;16.90;72.10;17.00;101104.00;;;;4952806;28;118883;-63
2022/07/19 01:05:34;;;;;;;1.17;0.80;;;16.90;72.30;17.00;101102.00;;;;4953800;28;89742;-63
2022/07/19 01:08:00;;;;;;;0.93;0.90;;;16.90;72.60;17.00;101109.00;;;;4936629;28;87846;-63
2022/07/19 01:10:27;;;;;;;1.08;0.95;;;16.90;73.20;16.90;101100.00;;;;4953985;28;108323;-64
2022/07/19 01:12:54;;;;;;;0.80;0.80;;;16.80;73.80;16.90;101107.00;;;;4954545;28;88406;-63
2022/07/19 01:15:24;;;;;;;2.83;0.60;;;16.80;74.20;16.80;101101.00;;;;4953852;28;98792;-63
2022/07/19 01:17:51;;;;;;;0.77;0.77;;;16.80;75.00;16.80;101115.00;;;;4954772;28;87702;-63
2022/07/19 01:20:20;;;;;;;2.13;1.05;;;16.70;75.70;16.80;101106.00;;;;4954972;28;87332;-63
2022/07/19 01:22:46;;;;;;;3.42;1.48;;;16.70;76.60;16.70;101101.00;;;;4953423;28;109183;-63
2022/07/19 01:25:13;;;;;;;1.13;1.02;;;16.60;77.10;16.60;101106.00;;;;4953510;28;90745;-63
2022/07/19 01:27:41;;;;;;;1.13;1.02;;;16.60;77.80;16.60;101100.00;;;;4935596;28;88817;-63
2022/07/19 01:30:29;;;;;;;1.00;0.70;;;16.60;78.50;16.50;101105.00;;;;4954818;28;87564;-63
2022/07/19 01:32:56;;;;;;;3.17;1.20;;;16.50;79.30;16.50;101110.00;;;;4952717;28;117516;-63
2022/07/19 01:35:22;;;;;;;3.30;1.30;;;16.50;79.70;16.50;101099.00;;;;4954429;28;88081;-63
2022/07/19 01:37:49;;;;;;;2.13;0.90;;;16.40;80.30;16.50;101105.00;;;;4936450;28;88560;-63
2022/07/19 01:40:16;;;;;;;0.70;0.70;;;16.40;81.00;16.40;101095.00;;;;4955236;28;87749;-63
2022/07/19 01:42:44;;;;;;;2.67;0.80;;;16.40;81.50;16.40;101091.00;;;;4936734;28;90460;-63
2022/07/19 01:45:11;;;;;;;0.82;0.82;;;16.30;81.80;16.40;101090.00;;;;4954786;28;95576;-63
2022/07/19 01:47:37;;;;;;;1.60;0.88;;;16.30;82.50;16.30;101090.00;;;;4954234;28;87794;-62
2022/07/19 01:50:05;;;;;;;0.70;0.70;;;16.30;82.80;16.30;101088.00;;;;4935760;28;98984;-63
2022/07/19 01:52:31;;;;;;;1.30;1.13;;;16.20;83.20;16.30;101079.00;;;;4953690;28;90196;-63
2022/07/19 01:54:57;;;;;;;0.82;0.82;;;16.20;83.30;16.20;101087.00;;;;4954145;28;104660;-63
2022/07/19 01:57:22;;;;;;;0.75;0.75;;;16.20;83.70;16.20;101085.00;;;;4953773;28;110664;-63
2022/07/19 01:59:48;;;;;;;3.65;0.90;;;16.10;84.10;16.20;101087.00;;;;4955652;28;87703;-63
2022/07/19 02:02:14;;;;;;;1.77;1.00;;;16.10;84.80;16.10;101086.00;;;;4957072;28;117397;-63
2022/07/19 02:04:39;;;;;;;1.02;0.75;;;16.10;86.00;16.10;101087.00;;;;4956303;28;118874;-63
2022/07/19 02:07:05;;;;;;;1.58;1.30;;;16.00;85.90;16.10;101090.00;;;;4957023;28;110203;-63
2022/07/19 02:09:31;;;;;;;1.00;1.00;;;16.00;86.50;16.00;101086.00;;;;4956308;28;107170;-63
2022/07/19 02:11:56;;;;;;;1.65;1.08;;;16.00;87.10;16.00;101093.00;;;;4956334;28;117742;-63
2022/07/19 02:14:22;;;;;;;2.88;1.48;;;15.90;87.70;15.90;101089.00;;;;4956008;28;117153;-62
2022/07/19 02:16:48;;;;;;;2.22;0.80;;;15.80;88.20;15.80;101089.00;;;;4955245;28;111739;-63
2022/07/19 02:19:14;;;;;;;3.33;1.40;;;15.80;88.90;15.80;101080.00;;;;4956071;28;108668;-63
2022/07/19 02:21:39;;;;;;;1.15;0.93;;;15.70;89.40;15.70;101080.00;;;;4956577;28;117906;-63
2022/07/19 02:24:07;;;;;;;1.27;1.13;;;15.70;90.10;15.70;101070.00;;;;4955295;28;114758;-63
2022/07/19 02:26:34;;;;;;;1.42;1.02;;;15.60;90.40;15.60;101068.00;;;;4956443;28;97463;-63
2022/07/19 02:29:00;;;;;;;1.77;1.10;;;15.60;90.60;15.60;101068.00;;;;4956966;28;87950;-63
2022/07/19 02:31:26;;;;;;;6.38;1.00;;;15.50;90.80;15.60;101070.00;;;;4938580;28;101224;-63
2022/07/19 02:33:51;;;;;;;3.22;0.90;;;15.50;90.90;15.60;101064.00;;;;4956340;28;116850;-63
2022/07/19 02:36:17;;;;;;;0.93;0.90;;;15.50;91.10;15.50;101066.00;;;;4956957;28;87682;-63
2022/07/19 02:38:44;;;;;;;1.50;1.40;;;15.50;91.40;15.50;101071.00;;;;4955647;28;107874;-63
2022/07/19 02:41:10;;;;;;;0.95;0.77;;;15.40;91.60;15.50;101070.00;;;;4955676;28;106148;-63
2022/07/19 02:43:36;;;;;;;1.40;1.30;;;15.40;91.90;15.40;101061.00;;;;4955075;28;117955;-63
2022/07/19 02:46:02;;;;;;;1.02;0.80;;;15.40;92.30;15.40;101065.00;;;;4957032;28;87677;-63
2022/07/19 02:48:28;;;;;;;0.65;0.65;;;15.30;92.50;15.40;101064.00;;;;4955572;28;97286;-63
2022/07/19 02:50:54;;;;;;;3.65;1.40;;;15.30;92.80;15.30;101071.00;;;;4955184;28;117126;-63
2022/07/19 02:53:19;;;;;;;1.35;1.25;;;15.30;93.00;15.30;101074.00;;;;4956125;28;102473;-63
2022/07/19 02:55:45;;;;;;;1.00;0.90;;;15.20;93.20;15.30;101063.00;;;;4937954;28;107976;-62
2022/07/19 02:58:11;;;;;;;1.85;1.23;;;15.20;93.40;15.20;101079.00;;;;4956264;28;109111;-63
2022/07/19 03:00:36;;;;;;;2.05;0.95;;;15.10;93.60;15.10;101073.00;;;;4956062;28;89001;-63
2022/07/19 03:03:48;;;;;;;2.33;1.42;;;15.10;93.70;15.10;101084.00;;;;4954836;28;117123;-63
2022/07/19 03:05:48;;;;;;;1.02;1.00;;;15.00;93.90;15.00;101092.00;;;;4941600;28;88754;-63
2022/07/19 03:08:15;;;;;;;1.45;1.25;;;15.00;94.00;15.00;101082.00;;;;4957153;28;87920;-63
2022/07/19 03:10:40;;;;;;;5.13;1.35;;;14.90;94.10;15.00;101085.00;;;;4955783;28;116718;-63
2022/07/19 03:13:06;;;;;;;2.85;0.70;;;14.90;94.20;15.00;101082.00;;;;4955932;28;106048;-63
2022/07/19 03:15:32;;;;;;;1.48;1.25;;;14.90;94.30;15.00;101084.00;;;;4955766;28;110079;-63
2022/07/19 03:17:57;;;;;;;1.27;1.17;;;14.90;94.40;15.00;101084.00;;;;4955395;28;101264;-63
2022/07/19 03:20:23;;;;;;;1.65;1.55;;;14.90;94.50;15.00;101085.00;;;;4954871;28;117120;-62
2022/07/19 03:22:49;;;;;;;1.50;1.25;;;14.80;94.60;15.00;101086.00;;;;4955005;28;115364;-63
2022/07/19 03:25:15;;;;;;;2.70;1.65;;;14.90;94.70;15.00;101086.00;;;;4955350;28;110481;-63
2022/07/19 03:27:40;;;;;;;1.15;1.05;;;14.90;94.80;15.00;101090.00;;;;4955466;28;109638;-63
2022/07/19 03:30:07;;;;;;;1.02;0.88;;;14.90;94.80;15.00;101090.00;;;;4954154;28;119101;-62
2022/07/19 03:32:33;;;;;;;3.90;1.30;;;14.90;94.90;15.00;101083.00;;;;4955613;28;88534;-63
2022/07/19 03:34:58;;;;;;;1.73;1.42;;;14.90;95.00;14.90;101099.00;;;;4954558;28;110699;-63
2022/07/19 03:37:24;;;;;;;1.90;0.93;;;14.90;95.20;14.90;101083.00;;;;4937352;28;107953;-63
2022/07/19 03:39:51;;;;;;;1.27;1.17;;;14.90;95.40;14.90;101088.00;;;;4936448;28;117741;-63
2022/07/19 03:42:16;;;;;;;1.00;0.95;;;14.80;95.60;14.80;101088.00;;;;4956412;28;88280;-63
2022/07/19 03:44:42;;;;;;;2.03;1.38;;;14.80;95.80;14.80;101081.00;;;;4936500;28;109537;-63
2022/07/19 03:47:08;;;;;;;1.13;1.02;;;14.80;95.90;14.80;101077.00;;;;4956215;28;87149;-63
2022/07/19 03:49:33;;;;;;;5.65;1.77;;;14.80;96.20;14.80;101089.00;;;;4954768;28;118081;-63
2022/07/19 03:51:59;;;;;;;2.22;1.40;;;14.80;96.30;14.90;101094.00;;;;4954149;28;118434;-63
2022/07/19 03:54:25;;;;;;;0.82;0.82;;;14.80;96.40;14.90;101089.00;;;;4954245;28;108657;-63
2022/07/19 03:56:51;;;;;;;1.55;1.08;;;14.80;96.40;14.90;101100.00;;;;4954069;28;88044;-63
2022/07/19 03:59:16;;;;;;;2.50;1.58;;;14.80;96.40;15.00;101101.00;;;;4935930;28;116884;-63
2022/07/19 04:01:42;;;;;;;1.83;1.10;;;14.90;96.50;15.00;101091.00;;;;4955007;28;109500;-63
2022/07/19 04:04:08;;;;;;;2.58;1.52;;;14.90;96.50;15.10;101087.00;;;;4954668;28;110544;-63
2022/07/19 04:06:33;;;;;;;4.15;0.82;;;15.00;96.60;15.10;101095.00;;;;4955175;28;108705;-63
2022/07/19 04:08:59;;;;;;;2.65;1.73;;;15.00;96.60;15.20;101088.00;;;;4953743;28;116394;-63
2022/07/19 04:11:25;;;;;;;1.92;1.20;;;15.00;96.70;15.30;101092.00;;;;4955138;28;112053;-63
2022/07/19 04:13:50;;;;;;;3.05;1.48;;;15.10;96.80;15.30;101091.00;;;;4953758;28;111795;-63
2022/07/19 04:16:16;;;;;;;4.93;1.20;;;15.20;96.80;15.40;101087.00;;;;4952482;28;109191;-62
2022/07/19 04:18:42;;;;;;;7.47;1.10;;;15.20;96.80;15.50;101090.00;;;;4953966;28;90971;-63
2022/07/19 04:21:08;;;;;;;1.10;1.00;;;15.30;96.80;15.50;101092.00;;;;4953319;28;118250;-63
2022/07/19 04:23:34;;;;;;;3.78;1.73;;;15.40;96.80;15.60;101095.00;;;;4942197;28;108653;-63
2022/07/19 04:26:00;;;;;;;1.60;1.10;;;15.50;96.70;15.70;101102.00;;;;4955297;28;87904;-63
2022/07/19 04:28:26;;;;;;;2.83;1.58;;;15.60;96.70;15.80;101088.00;;;;4953433;28;118146;-63
2022/07/19 04:30:52;;;;;;;1.38;1.10;;;15.70;96.70;15.90;101094.00;;;;4954432;28;117190;-63
2022/07/19 04:33:18;;;;;;;1.55;1.25;;;15.80;96.50;16.00;101096.00;;;;4953830;28;108641;-63
2022/07/19 04:35:45;;;;;;;1.48;1.38;;;15.90;96.40;16.10;101094.00;;;;4955524;28;87042;-63
2022/07/19 04:38:11;;;;;;;1.50;1.30;;;16.00;96.30;16.30;101090.00;;;;4955166;28;88175;-63
2022/07/19 04:40:38;;;;;;;0.88;0.85;;;16.10;96.20;16.40;101099.00;;;;4936811;28;88038;-64
2022/07/19 04:43:04;;;;;;;1.67;1.30;;;16.20;96.00;16.50;101090.00;;;;4954987;28;88913;-63
2022/07/19 04:45:29;;;;;;;2.10;1.25;;;16.40;95.80;16.70;101081.00;;;;4954688;28;98996;-63
2022/07/19 04:47:55;;;;;;;2.30;1.52;;;16.50;95.40;16.90;101084.00;;;;4935266;28;117366;-63
2022/07/19 04:50:21;;;;;;;2.53;1.67;;;16.70;95.10;17.10;101085.00;;;;4954713;28;87675;-63
2022/07/19 04:52:47;;;;;;;1.02;0.93;;;16.80;94.60;17.20;101082.00;;;;4955037;28;90338;-63
2022/07/19 04:55:13;;;;;;;2.22;0.80;;;17.00;94.30;17.40;101082.00;;;;4954149;28;109259;-63
2022/07/19 04:57:39;;;;;;;0.93;0.93;;;17.20;93.80;17.70;101086.00;;;;4954939;28;88806;-63
2022/07/19 05:00:09;;;;;;;1.27;1.17;;;17.40;93.50;17.90;101083.00;;;;4954190;28;117689;-63
2022/07/19 05:02:35;;;;;;;1.48;0.98;;;17.60;93.00;18.10;101085.00;;;;4955288;28;88109;-63
2022/07/19 05:05:01;;;;;;;1.58;1.00;;;17.80;92.50;18.30;101087.00;;;;4954177;28;101961;-63
2022/07/19 05:07:27;;;;;;;2.45;1.48;;;18.10;92.00;18.50;101084.00;;;;4953680;28;104280;-63
2022/07/19 05:09:53;;;;;;;1.13;1.02;;;18.20;91.70;18.70;101084.00;;;;4953715;28;112815;-63
2022/07/19 05:12:19;;;;;;;1.02;0.75;;;18.50;91.30;18.90;101080.00;;;;4953154;28;109916;-64
2022/07/19 05:14:44;;;;;;;1.30;1.17;;;18.60;91.00;19.10;101080.00;;;;4952391;28;110190;-64
2022/07/19 05:17:10;;;;;;;1.13;1.02;;;18.80;90.60;19.30;101078.00;;;;4952505;28;117658;-64
2022/07/19 05:19:36;;;;;;;0.95;0.95;;;19.00;90.20;19.50;101083.00;;;;4953206;28;117418;-64
2022/07/19 05:22:01;;;;;;;2.83;1.13;;;19.30;89.80;19.70;101082.00;;;;4954669;28;87796;-64
2022/07/19 05:24:27;;;;;;;1.33;0.80;;;19.50;88.80;19.90;101084.00;;;;4955288;28;86842;-64
2022/07/19 05:26:53;;;;;;;2.15;1.38;;;19.70;87.70;20.20;101085.00;;;;4952947;28;117532;-64
2022/07/19 05:29:19;;;;;;;1.83;0.95;;;19.90;87.00;20.40;101082.00;;;;4953479;28;100488;-64
2022/07/19 05:31:45;;;;;;;0.80;0.80;;;20.10;85.70;20.60;101074.00;;;;4953743;28;88577;-64
2022/07/19 05:34:11;;;;;;;4.70;0.90;;;20.40;84.70;20.90;101067.00;;;;4954357;28;108194;-64
2022/07/19 05:36:36;;;;;;;1.08;1.00;;;20.60;83.50;21.10;101074.00;;;;4957769;28;88756;-64
2022/07/19 05:39:03;;;;;;;1.05;0.95;;;20.80;82.40;21.30;101083.00;;;;4956430;28;115598;-64
2022/07/19 05:41:28;;;;;;;2.60;1.48;;;21.00;81.20;21.60;101079.00;;;;4957511;28;88058;-64
2022/07/19 05:43:54;;;;;;;0.95;0.85;;;21.30;80.10;21.90;101084.00;;;;4957128;28;87913;-64
2022/07/19 05:46:20;;;;;;;1.52;0.88;;;21.60;79.00;22.20;101079.00;;;;4956821;28;111480;-64
2022/07/19 05:48:46;;;;;;;1.20;0.88;;;21.90;77.70;22.50;101087.00;;;;4939433;28;93109;-64
2022/07/19 05:51:12;;;;;;;0.70;0.70;;;22.20;76.40;22.80;101080.00;;;;4957420;28;97658;-64
2022/07/19 05:53:38;;;;;;;0.75;0.75;;;22.50;75.50;23.10;101082.00;;;;4937923;28;87872;-64
2022/07/19 05:56:05;;;;;;;1.95;0.85;;;22.80;74.50;23.30;101092.00;;;;4953064;28;90262;-65
2022/07/19 05:58:31;;;;;;;2.10;1.15;;;23.10;72.30;23.60;101084.00;;;;4957348;28;87845;-64
2022/07/19 06:03:41;;;;;;;2.30;0.98;;;23.50;69.40;24.00;101080.00;;;;4956881;28;87710;-64
2022/07/19 06:06:07;;;;;;;9.05;1.08;;;23.70;67.00;24.20;101083.00;;;;4955863;28;116876;-64
2022/07/19 06:08:33;;;;;;;1.02;0.77;;;23.90;66.00;24.40;101091.00;;;;4955633;28;117047;-64
2022/07/19 06:10:58;;;;;;;0.60;0.60;;;24.10;65.30;24.70;101086.00;;;;4957032;28;88124;-64
2022/07/19 06:13:24;;;;;;;0.75;0.75;;;24.40;64.20;25.00;101088.00;;;;4956087;28;109594;-65
2022/07/19 06:15:50;;;;;;;0.95;0.60;;;24.60;62.90;25.20;101085.00;;;;4956260;28;98552;-64
2022/07/19 06:18:16;;;;;;;0.95;0.73;;;24.90;61.80;25.50;101094.00;;;;4955754;28;117256;-65
2022/07/19 06:20:42;;;;;;;10.10;0.65;;;25.20;60.40;25.70;101101.00;;;;4956480;28;88691;-64
2022/07/19 06:23:08;;;;;;;0.98;0.75;;;25.50;59.40;26.00;101104.00;;;;4955338;28;108734;-65
2022/07/19 06:25:33;;;;;;;1.30;0.93;;;25.70;58.60;26.30;101108.00;;;;4955038;28;117491;-65
2022/07/19 06:27:59;;;;;;;0.70;0.68;;;26.00;58.20;26.60;101104.00;;;;4955369;28;116733;-65
2022/07/19 06:30:25;;;;;;;1.63;0.90;;;26.20;57.50;26.80;101103.00;;;;4956132;28;109320;-64
2022/07/19 06:32:50;;;;;;;0.50;0.45;;;26.50;56.30;27.00;101100.00;;;;4955966;28;108989;-65
2022/07/19 06:35:16;;;;;;;1.17;1.08;;;26.70;55.30;27.30;101107.00;;;;4955750;28;118815;-64
2022/07/19 06:37:42;;;;;;;0.70;0.70;;;26.90;54.80;27.50;101107.00;;;;4955458;28;117904;-65
2022/07/19 06:40:08;;;;;;;1.15;0.90;;;27.20;54.00;27.80;101107.00;;;;4955704;28;110721;-65
2022/07/19 06:42:34;;;;;;;3.85;0.95;;;27.40;53.20;28.00;101095.00;;;;4938898;28;90932;-65
2022/07/19 06:45:01;;;;;;;1.92;1.23;;;27.70;52.50;28.30;101099.00;;;;4955627;28;88599;-65
2022/07/19 06:47:28;;;;;;;0.65;0.65;;;27.90;51.50;28.50;101100.00;;;;4955699;28;89286;-65
2022/07/19 06:49:54;;;;;;;0.88;0.73;;;28.10;50.80;28.70;101095.00;;;;4956459;28;88239;-65
2022/07/19 06:52:20;;;;;;;0.35;0.32;;;28.40;49.80;28.90;101101.00;;;;4956416;28;87913;-65
2022/07/19 06:54:46;;;;;;;0.88;0.55;;;28.60;48.90;29.10;101092.00;;;;4956074;28;89892;-64
2022/07/19 06:57:12;;;;;;;1.48;0.98;;;28.80;48.40;29.40;101092.00;;;;4956835;28;88073;-65
2022/07/19 06:59:38;;;;;;;0.60;0.60;;;29.00;47.70;29.60;101102.00;;;;4955577;28;110751;-63
2022/07/19 07:02:04;;;;;;;1.27;0.50;;;29.30;46.70;29.80;101101.00;;;;4956710;28;87146;-64
2022/07/19 07:04:30;;;;;;;0.98;0.88;;;29.40;45.70;29.90;101100.00;;;;4955517;28;88076;-64
2022/07/19 07:06:57;;;;;;;1.17;0.77;;;29.60;44.60;30.10;101100.00;;;;4954827;28;108662;-65
2022/07/19 07:09:23;;;;;;;1.05;0.50;;;29.80;44.60;30.30;101094.00;;;;4954502;28;110945;-65
2022/07/19 07:11:48;;;;;;;0.55;0.52;;;30.00;44.30;30.60;101108.00;;;;4954664;28;108120;-65
2022/07/19 07:14:14;;;;;;;1.50;0.80;;;30.20;44.00;30.70;101108.00;;;;4935959;28;116929;-65
2022/07/19 07:16:40;;;;;;;8.48;1.10;;;30.40;43.10;30.90;101101.00;;;;4955084;28;117634;-64
2022/07/19 07:19:06;;;;;;;0.93;0.50;;;30.60;42.20;31.00;101105.00;;;;4936509;28;112585;-64
2022/07/19 07:21:34;;;;;;;1.42;0.85;;;30.70;41.30;31.20;101108.00;;;;4954959;28;109655;-64
2022/07/19 07:24:01;;;;;;;0.95;0.80;;;30.90;41.50;31.40;101102.00;;;;4954725;28;89239;-65
2022/07/19 07:26:27;;;;;;;0.82;0.40;;;31.00;40.80;31.60;101100.00;;;;4955616;28;108556;-65
2022/07/19 07:28:53;;;;;;;0.35;0.35;;;31.20;40.00;31.70;101107.00;;;;4967962;28;99677;-64
2022/07/19 07:31:19;;;;;;;1.88;0.50;;;31.40;39.70;31.90;101102.00;;;;4961872;28;108297;-65
2022/07/19 07:33:44;;;;;;;0.75;0.60;;;31.60;39.70;32.10;101101.00;;;;4958022;28;111475;-64
2022/07/19 07:36:10;;;;;;;1.08;0.65;;;31.80;39.40;32.40;101103.00;;;;4975010;28;116500;-65
2022/07/19 07:38:36;;;;;;;0.77;0.60;;;32.00;39.10;32.60;101106.00;;;;4975036;28;100347;-65
2022/07/19 07:41:04;;;;;;;1.63;0.45;;;32.20;38.60;32.80;101096.00;;;;4975229;28;107592;-65
2022/07/19 07:43:30;;;;;;;0.50;0.50;;;32.50;38.30;33.00;101107.00;;;;4957619;28;88495;-65
2022/07/19 07:45:55;;;;;;;1.30;0.70;;;32.70;37.90;33.20;101105.00;;;;4954617;28;115620;-65
2022/07/19 07:48:21;;;;;;;0.75;0.73;;;32.80;37.50;33.40;101100.00;;;;4955061;28;111386;-65
2022/07/19 07:50:47;;;;;;;1.08;0.60;;;33.00;37.30;33.60;101101.00;;;;4956523;28;90892;-64
2022/07/19 07:53:13;;;;;;;1.60;0.90;;;33.20;36.90;33.80;101102.00;;;;4956445;28;93266;-64
2022/07/19 07:55:41;;;;;;;0.70;0.70;;;33.50;36.60;34.10;101104.00;;;;4954686;28;118188;-65
2022/07/19 07:58:11;;;;;;;2.53;0.68;;;33.70;36.50;34.30;101100.00;;;;4954486;28;88473;-65
2022/07/19 08:00:39;;;;;;;0.73;0.73;;;34.00;36.40;34.50;101093.00;;;;4956095;28;88006;-65
2022/07/19 08:03:05;;;;;;;1.45;0.80;;;34.10;36.10;34.70;101094.00;;;;4955457;28;88755;-65
2022/07/19 08:05:31;;;;;;;0.75;0.50;;;34.30;35.80;34.90;101106.00;;;;4954810;28;87834;-65
2022/07/19 08:07:58;;;;;;;0.40;0.40;;;34.50;35.70;35.10;101104.00;;;;4955165;28;88074;-65
2022/07/19 08:10:31;;;;;;;0.70;0.60;;;34.70;35.60;35.30;101099.00;;;;4954965;28;100674;-65
2022/07/19 08:12:57;;;;;;;0.88;0.75;;;34.90;35.10;35.40;101100.00;;;;4955673;28;88444;-65
2022/07/19 08:15:23;;;;;;;2.40;0.70;;;35.10;34.80;35.60;101100.00;;;;4954772;28;105897;-63
2022/07/19 08:17:49;;;;;;;0.82;0.63;;;35.30;34.70;35.80;101101.00;;;;4955256;28;90249;-63
2022/07/19 08:20:15;;;;;;;0.55;0.55;;;35.40;34.10;35.90;101096.00;;;;4955726;28;87795;-64
2022/07/19 08:22:40;;;;;;;0.77;0.68;;;35.50;33.80;36.00;101101.00;;;;4954446;28;89969;-64
2022/07/19 08:25:07;;;;;;;0.95;0.70;;;35.70;33.80;36.10;101099.00;;;;4954992;28;88943;-62
2022/07/19 08:27:33;;;;;;;0.35;0.28;;;35.70;33.40;36.20;101092.00;;;;4954635;28;87691;-65
2022/07/19 08:30:00;;;;;;;0.60;0.60;;;35.90;33.30;36.40;101089.00;;;;4954273;28;105582;-64
2022/07/19 08:32:25;;;;;;;0.68;0.52;;;36.00;33.10;36.50;101093.00;;;;4954216;28;89144;-64
2022/07/19 08:34:51;;;;;;;0.52;0.50;;;36.20;32.90;36.70;101084.00;;;;4953394;28;118255;-64
2022/07/19 08:37:17;;;;;;;1.60;0.65;;;36.30;32.40;36.80;101093.00;;;;4953918;28;88440;-63
2022/07/19 08:39:43;;;;;;;0.50;0.50;;;36.40;32.20;37.10;101094.00;;;;4954103;28;108102;-63
2022/07/19 08:42:09;;;;;;;0.93;0.50;;;36.60;32.30;37.20;101091.00;;;;4954785;28;88434;-63
2022/07/19 08:44:39;;;;;;;1.08;0.68;;;36.80;32.20;37.40;101091.00;;;;4954475;28;88862;-63
2022/07/19 08:47:06;;;;;;;1.23;0.65;;;37.00;31.90;37.50;101086.00;;;;4936627;28;88573;-63
2022/07/19 08:49:32;;;;;;;0.50;0.50;;;37.10;30.90;37.60;101087.00;;;;4957260;28;87892;-63
2022/07/19 08:51:58;;;;;;;0.60;0.60;;;37.20;31.10;37.70;101096.00;;;;4954737;28;87881;-63
2022/07/19 08:54:24;;;;;;;0.68;0.68;;;37.30;31.00;37.80;101090.00;;;;4953617;28;117451;-63
2022/07/19 08:59:54;;;;;;;0.77;0.75;;;37.60;30.50;38.10;101092.00;;;;4892549;28;87943;-64
2022/07/19 09:02:20;;;;;;;0.93;0.90;;;37.60;29.40;38.20;101093.00;;;;4891809;28;118422;-63
2022/07/19 09:05:07;;;;;;;2.15;0.50;;;37.70;29.50;38.10;101093.00;;;;4919385;28;116009;-63
2022/07/19 09:07:37;;;;;;;0.60;0.60;;;37.70;29.10;38.10;101091.00;;;;4954810;28;88048;-64
2022/07/19 09:10:19;;;;;;;0.77;0.40;;;37.70;29.40;38.20;101086.00;;;;4939002;28;87941;-64
2022/07/19 09:13:03;;;;;;;0.38;0.38;;;37.80;29.20;38.30;101085.00;;;;4956800;28;109494;-64
2022/07/19 09:15:50;;;;;;;1.00;0.50;;;37.80;29.60;38.40;101091.00;;;;4957556;28;91150;-64
2022/07/19 09:18:30;;;;;;;0.95;0.60;;;37.90;29.10;38.50;101088.00;;;;4938286;28;88048;-64
2022/07/19 09:21:03;;;;;;;0.50;0.50;;;38.00;28.80;38.50;101087.00;;;;4957752;28;87786;-63
2022/07/19 09:23:29;;;;;;;1.50;1.13;;;38.10;28.80;38.60;101089.00;;;;4956204;28;107206;-63
2022/07/19 09:25:58;;;;;;;1.13;0.90;;;38.10;28.90;38.60;101084.00;;;;4957248;28;87980;-64
2022/07/19 09:28:26;;;;;;;0.82;0.65;;;38.20;29.00;38.70;101087.00;;;;4957319;28;88037;-64
2022/07/19 09:30:55;;;;;;;3.08;0.63;;;38.30;28.70;38.80;101078.00;;;;4958543;28;86770;-63
2022/07/19 09:33:30;;;;;;;0.93;0.60;;;38.40;28.00;38.80;101084.00;;;;4950856;28;103465;-64
2022/07/19 09:35:59;;;;;;;0.82;0.43;;;38.40;27.90;38.90;101075.00;;;;4954162;28;111161;-63
2022/07/19 09:38:30;;;;;;;1.00;0.60;;;38.40;28.00;39.00;101078.00;;;;4957364;28;88705;-64
2022/07/19 09:41:13;;;;;;;1.40;0.75;;;38.50;27.90;39.10;101080.00;;;;4957413;28;87988;-64
2022/07/19 09:43:54;;;;;;;1.00;0.60;;;38.60;27.90;39.20;101074.00;;;;4956854;28;87744;-64
2022/07/19 09:46:38;;;;;;;1.00;0.60;;;38.70;27.80;39.50;101068.00;;;;4957744;28;89091;-64
2022/07/19 09:49:16;;;;;;;0.68;0.50;;;38.80;27.60;39.60;101071.00;;;;4957658;28;87691;-64
2022/07/19 09:51:48;;;;;;;2.17;1.02;;;39.00;27.20;39.70;101074.00;;;;4938948;28;87930;-65
2022/07/19 09:54:27;;;;;;;1.10;0.45;;;39.20;26.30;39.60;101068.00;;;;4954182;28;88026;-65
2022/07/19 09:56:55;;;;;;;0.40;0.40;;;39.10;26.80;39.80;101064.00;;;;4938724;28;102531;-64
2022/07/19 09:59:23;;;;;;;2.58;0.85;;;39.10;26.80;40.00;101070.00;;;;4957645;28;87695;-64
2022/07/19 10:01:52;;;;;;;0.80;0.73;;;39.30;26.80;40.10;101068.00;;;;4957432;28;87638;-64
2022/07/19 10:04:24;;;;;;;0.63;0.50;;;39.40;26.30;40.20;101074.00;;;;4956442;28;89797;-65
2022/07/19 10:06:52;;;;;;;0.82;0.75;;;39.60;26.30;40.30;101071.00;;;;4957616;28;88995;-65
2022/07/19 10:09:20;;;;;;;1.85;0.85;;;39.70;26.00;40.40;101069.00;;;;4938834;28;87802;-64
2022/07/19 10:11:46;;;;;;;0.40;0.40;;;39.80;26.00;40.50;101074.00;;;;4957468;28;87922;-65
2022/07/19 10:14:12;;;;;;;1.83;0.63;;;39.90;25.70;40.60;101070.00;;;;4956140;28;98382;-64
2022/07/19 10:16:53;;;;;;;0.43;0.43;;;40.00;25.60;40.60;101073.00;;;;4957147;28;88751;-64
2022/07/19 10:19:39;;;;;;;1.95;0.40;;;40.00;25.60;40.70;101065.00;;;;4957494;28;87634;-65
2022/07/19 10:22:10;;;;;;;0.73;0.20;;;40.10;25.60;40.70;101065.00;;;;4939065;28;86909;-64
2022/07/19 10:25:03;;;;;;;0.57;0.50;;;40.00;25.80;40.70;101069.00;;;;4956103;28;88678;-65
2022/07/19 10:27:39;;;;;;;2.70;0.55;;;40.00;25.40;40.80;101068.00;;;;4932629;28;87891;-65
2022/07/19 10:30:11;;;;;;;0.82;0.60;;;40.10;25.40;41.00;101062.00;;;;4938542;28;88809;-64
2022/07/19 10:32:45;;;;;;;1.48;0.63;;;40.20;25.50;41.20;101058.00;;;;4954877;28;87929;-64
2022/07/19 10:35:23;;;;;;;0.40;0.32;;;40.40;25.30;41.40;101063.00;;;;4925637;28;91518;-64
2022/07/19 10:38:00;;;;;;;0.30;0.28;;;40.60;25.00;41.50;101069.00;;;;4938703;28;88281;-64
2022/07/19 10:40:43;;;;;;;0.60;0.50;;;40.70;24.90;41.60;101064.00;;;;4957390;28;87544;-64
2022/07/19 10:43:13;;;;;;;2.33;1.17;;;40.80;24.60;41.60;101061.00;;;;4957034;28;88415;-64
2022/07/19 10:45:42;;;;;;;0.40;0.40;;;40.80;24.30;41.40;101057.00;;;;4955785;28;88095;-64
2022/07/19 10:48:11;;;;;;;0.55;0.55;;;40.70;24.00;41.30;101055.00;;;;4957206;28;88767;-65
2022/07/19 10:50:51;;;;;;;0.95;0.63;;;40.60;24.00;41.30;101059.00;;;;4956590;28;87794;-63